Airfield :
LOGIN :

Register | Disclaimer

   EN    FR    IT 

 










Legend :    VFR   Marginal VFR   IFR   Intensive IFR   Very Intensive IFR
Visi :
Ceiling :
>= 8 km
>= 3000ft
5 to 8 km
1000 to 3000 ft
1500m to 5 km
500 to 1000 ft
800 to 1500m
200 to 500 ft
< 800m
< 200 ft
Symbols :   Thunderstorms  Fog  Heavy snow  Heavy precipitations  Wind > 20 kt
SIGMETs :     Misc.  Thunderstorms  Icing  Turbulence  Mountain Waves  Volcanic Ashes






- Airport Elevation : 147 ft
- IATA code : DUS


EDDL - Düsseldorf Int.

CURRENT METAR :
  • 142150Z 13003KT 090V160 9999 BKN018 BKN036 16/14 Q1013 NOSIG

EXPIRED METARs :
  • 142120Z 16004KT 9999 FEW020 SCT036 15/14 Q1013 NOSIG
  • 142050Z 15004KT 9999 FEW020 15/14 Q1013 NOSIG
  • 142020Z 15004KT 9999 FEW020 15/14 Q1013 NOSIG
  • 141950Z 13005KT 9999 FEW020 SCT036 15/14 Q1013 NOSIG
  • 141920Z 12005KT 9999 FEW020 BKN036 15/14 Q1013 NOSIG

TAF AMD TAF EDDL
Valid from the 14 at 19:00 until the 16 at 00:00 UTC


141955Z 1419/1524 13005KT 9999 SCT030
TEMPO 1419/1423 4000 -RADZ BKN012
BECMG 1420/1423 31005KT
TEMPO 1423/1508 2500 -DZRA BR BKN006
TEMPO 1511/1516 32010KT



MET'MAP, your aeronautical weather chart ! - Copyright ORBIFLY December 2007 - Disclaimer

ORBIFLY MET'MAP TEAM :

Programming & Development : Alexandra Zaïnal
Concept & original design : Baudouin d'Aumeries
Assistance for programming : Marc-Olivier Méhu
Technical & hardware support : Manuel Goepfert

Contact : metmap@orbifly.com




SOURCES & CREDITS :

   NOAA